createdAt,value
2023-03-02T00:01:40.282Z,77.21
2023-03-02T00:04:12.688Z,77.13
2023-03-02T00:06:40.217Z,77.52
2023-03-02T00:09:07.986Z,77.50
2023-03-02T00:11:38.060Z,76.79
2023-03-02T00:14:06.370Z,77.07
2023-03-02T00:16:34.562Z,76.95
2023-03-02T00:19:02.319Z,77.37
2023-03-02T00:21:29.891Z,77.09
2023-03-02T00:23:57.863Z,77.22
2023-03-02T00:26:25.313Z,77.48
2023-03-02T00:28:52.856Z,77.65
2023-03-02T00:31:20.594Z,77.93
2023-03-02T00:33:48.160Z,78.23
2023-03-02T00:36:17.773Z,78.14
2023-03-02T00:38:45.640Z,78.07
2023-03-02T00:41:14.566Z,77.84
2023-03-02T00:43:42.597Z,77.88
2023-03-02T00:46:15.475Z,77.62
2023-03-02T00:48:43.497Z,77.13
2023-03-02T00:51:12.054Z,76.34
2023-03-02T00:53:39.742Z,76.47
2023-03-02T00:56:08.445Z,75.39
2023-03-02T00:58:37.734Z,75.50
2023-03-02T01:01:09.204Z,75.58
2023-03-02T01:03:38.161Z,75.61
2023-03-02T01:06:13.464Z,75.03
2023-03-02T01:08:41.426Z,76.15
2023-03-02T01:11:20.974Z,74.23
2023-03-02T01:13:50.299Z,74.58
2023-03-02T01:16:18.156Z,73.88
2023-03-02T01:18:45.741Z,73.80
2023-03-02T01:21:15.876Z,73.61
2023-03-02T01:23:43.703Z,73.55
2023-03-02T01:26:11.361Z,73.52
2023-03-02T01:28:39.316Z,73.55
2023-03-02T01:31:07.126Z,72.98
2023-03-02T01:33:34.773Z,73.13
2023-03-02T01:36:02.687Z,73.21
2023-03-02T01:38:30.333Z,73.21
2023-03-02T01:40:57.824Z,72.20
2023-03-02T01:43:25.728Z,72.15
2023-03-02T01:45:57.512Z,72.23
2023-03-02T01:48:28.791Z,72.53
2023-03-02T01:50:58.429Z,72.31
2023-03-02T01:53:30.236Z,73.00
2023-03-02T01:56:00.728Z,72.10
2023-03-02T01:58:34.423Z,71.88
2023-03-02T02:01:02.306Z,72.13
2023-03-02T02:03:31.247Z,71.97
2023-03-02T02:06:09.316Z,72.25
2023-03-02T02:08:39.031Z,72.18
2023-03-02T02:11:07.173Z,72.24
2023-03-02T02:13:34.917Z,72.66
2023-03-02T02:16:02.821Z,72.53
2023-03-02T02:18:30.692Z,72.60
2023-03-02T02:20:59.236Z,72.53
2023-03-02T02:23:45.361Z,72.71
2023-03-02T02:26:19.732Z,72.20
2023-03-02T02:28:57.826Z,72.13
2023-03-02T02:31:46.999Z,72.61
2023-03-02T02:34:44.178Z,72.54
2023-03-02T02:37:26.195Z,73.11
2023-03-02T02:39:55.063Z,73.33
2023-03-02T02:42:30.481Z,72.88
2023-03-02T02:45:04.200Z,73.19
2023-03-02T02:47:32.217Z,73.41
2023-03-02T02:50:01.049Z,73.10
2023-03-02T02:52:29.626Z,73.02
2023-03-02T02:54:58.601Z,73.35
2023-03-02T02:57:29.457Z,73.70
2023-03-02T03:00:01.324Z,74.01
2023-03-02T03:02:33.375Z,74.01
2023-03-02T03:05:03.788Z,74.19
2023-03-02T03:07:32.759Z,74.55
2023-03-02T03:10:06.476Z,74.71
2023-03-02T03:12:38.812Z,75.31
2023-03-02T03:15:08.146Z,75.75
2023-03-02T03:17:36.188Z,76.15
2023-03-02T03:20:10.747Z,76.16
2023-03-02T03:22:41.563Z,76.83
2023-03-02T03:25:10.004Z,76.67
2023-03-02T03:27:38.080Z,77.17
2023-03-02T03:30:06.859Z,77.51
2023-03-02T03:32:36.704Z,77.58
2023-03-02T03:35:08.701Z,77.41
2023-03-02T03:37:38.253Z,77.41
2023-03-02T03:40:09.562Z,78.11
2023-03-02T03:42:38.431Z,78.14
2023-03-02T03:45:08.637Z,78.27
2023-03-02T03:47:36.519Z,78.71
2023-03-02T03:50:05.142Z,78.76
2023-03-02T03:52:34.916Z,79.06
2023-03-02T03:55:03.268Z,78.80
2023-03-02T03:57:30.860Z,79.09
2023-03-02T03:59:59.518Z,79.45
2023-03-02T04:02:27.108Z,79.06
2023-03-02T04:04:54.912Z,79.46
2023-03-02T04:07:22.921Z,79.65
2023-03-02T04:10:03.377Z,79.43
2023-03-02T04:12:38.505Z,79.17
2023-03-02T04:15:08.568Z,79.53
2023-03-02T04:17:37.080Z,79.87
2023-03-02T04:20:09.678Z,79.95
2023-03-02T04:22:47.640Z,79.99
2023-03-02T04:25:21.242Z,80.36
2023-03-02T04:27:52.311Z,80.42
2023-03-02T04:30:24.003Z,80.64
2023-03-02T04:32:52.419Z,81.18
2023-03-02T04:35:20.542Z,81.79
2023-03-02T04:37:48.282Z,80.94
2023-03-02T04:40:17.657Z,81.30
2023-03-02T04:42:45.473Z,81.08
2023-03-02T04:45:14.005Z,81.21
2023-03-02T04:47:41.898Z,81.87
2023-03-02T04:50:12.265Z,82.10
2023-03-02T04:52:40.530Z,82.31
2023-03-02T04:55:08.747Z,82.22
2023-03-02T04:57:36.233Z,82.45
2023-03-02T05:00:04.948Z,82.27
2023-03-02T05:02:37.124Z,82.12
2023-03-02T05:05:05.092Z,82.37
2023-03-02T05:07:33.083Z,82.41
2023-03-02T05:10:01.057Z,82.84
2023-03-02T05:12:29.184Z,82.91
2023-03-02T05:14:57.032Z,83.15
2023-03-02T05:17:24.596Z,83.36
2023-03-02T05:19:52.387Z,83.25
2023-03-02T05:22:20.251Z,83.04
2023-03-02T05:24:47.744Z,83.69
2023-03-02T05:27:15.401Z,83.44
2023-03-02T05:29:43.559Z,83.32
2023-03-02T05:32:12.614Z,83.05
2023-03-02T05:34:40.085Z,83.75
2023-03-02T05:37:07.801Z,82.50
2023-03-02T05:39:35.400Z,82.42
2023-03-02T05:42:03.023Z,82.97
2023-03-02T05:44:30.782Z,82.88
2023-03-02T05:46:58.345Z,83.35
2023-03-02T05:49:25.891Z,84.25
2023-03-02T05:51:53.757Z,83.84
2023-03-02T05:54:21.272Z,83.45
2023-03-02T05:56:50.288Z,83.54
2023-03-02T05:59:18.135Z,83.67
2023-03-02T06:01:45.640Z,83.84
2023-03-02T06:04:13.526Z,83.44
2023-03-02T06:06:40.981Z,83.55
2023-03-02T06:09:08.511Z,83.14
2023-03-02T06:11:36.307Z,83.13
2023-03-02T06:14:03.754Z,82.68
2023-03-02T06:16:32.084Z,82.30
2023-03-02T06:18:59.975Z,82.18
2023-03-02T06:21:27.454Z,81.52
2023-03-02T06:23:54.976Z,81.82
2023-03-02T06:26:22.781Z,81.61
2023-03-02T06:28:53.133Z,81.30
2023-03-02T06:31:22.236Z,81.04
2023-03-02T06:33:50.169Z,81.27
2023-03-02T06:36:17.919Z,80.63
2023-03-02T06:38:45.548Z,80.90
2023-03-02T06:41:13.424Z,80.69
2023-03-02T06:43:40.902Z,80.62
2023-03-02T06:46:08.730Z,80.33
2023-03-02T06:48:40.290Z,80.73
2023-03-02T06:51:14.978Z,80.49
2023-03-02T06:53:42.803Z,80.62
2023-03-02T06:56:11.714Z,80.46
2023-03-02T06:58:40.602Z,80.40
2023-03-02T07:01:09.544Z,80.01
2023-03-02T07:03:37.345Z,80.29
2023-03-02T07:06:05.147Z,79.91
2023-03-02T07:08:33.714Z,79.86
2023-03-02T07:11:05.836Z,79.94
2023-03-02T07:13:33.688Z,79.44
2023-03-02T07:16:05.128Z,79.14
2023-03-02T07:18:32.964Z,79.05
2023-03-02T07:21:00.648Z,78.00
2023-03-02T07:23:28.223Z,77.61
2023-03-02T07:25:56.485Z,78.01
2023-03-02T07:28:25.387Z,77.95
2023-03-02T07:30:53.766Z,77.64
2023-03-02T07:33:22.331Z,77.27
2023-03-02T07:35:49.899Z,77.21
2023-03-02T07:38:17.532Z,76.43
2023-03-02T07:40:45.519Z,76.91
2023-03-02T07:43:12.992Z,76.87
2023-03-02T07:45:40.524Z,75.52
2023-03-02T07:48:08.373Z,75.14
2023-03-02T07:50:35.978Z,74.43
2023-03-02T07:53:03.590Z,75.14
2023-03-02T07:55:31.427Z,74.22
2023-03-02T07:57:58.871Z,73.73
2023-03-02T08:00:26.563Z,73.76
2023-03-02T08:03:02.007Z,73.11
2023-03-02T08:05:36.240Z,73.04
2023-03-02T08:08:05.239Z,74.31
2023-03-02T08:10:36.077Z,73.33
2023-03-02T08:13:05.097Z,74.07
2023-03-02T08:15:32.964Z,74.12
2023-03-02T08:18:00.541Z,73.98
2023-03-02T08:20:28.578Z,73.84
2023-03-02T08:22:56.572Z,73.75
2023-03-02T08:25:24.166Z,73.96
2023-03-02T08:27:51.648Z,73.98
2023-03-02T08:30:20.216Z,74.79
2023-03-02T08:32:48.903Z,74.16
2023-03-02T08:35:16.602Z,75.06
2023-03-02T08:37:44.392Z,74.57
2023-03-02T08:40:12.657Z,75.07
2023-03-02T08:42:42.872Z,75.04
2023-03-02T08:45:10.750Z,75.35
2023-03-02T08:47:38.662Z,75.64
2023-03-02T08:50:09.587Z,73.71
2023-03-02T08:52:37.404Z,74.42
2023-03-02T08:55:05.617Z,74.71
2023-03-02T08:57:34.819Z,74.73
2023-03-02T09:00:08.672Z,73.93
2023-03-02T09:02:36.186Z,73.92
2023-03-02T09:05:04.191Z,74.76
2023-03-02T09:07:31.761Z,74.40
2023-03-02T09:09:59.562Z,75.20
2023-03-02T09:12:27.488Z,75.74
2023-03-02T09:14:54.977Z,76.55
2023-03-02T09:17:22.467Z,76.00
2023-03-02T09:19:50.371Z,76.22
2023-03-02T09:22:18.612Z,76.82
2023-03-02T09:24:46.067Z,75.02
2023-03-02T09:27:13.814Z,74.27
2023-03-02T09:29:42.736Z,72.89
2023-03-02T09:32:13.588Z,73.43
2023-03-02T09:34:41.568Z,74.17
2023-03-02T09:37:09.039Z,74.93
2023-03-02T09:39:37.804Z,74.09
2023-03-02T09:42:46.102Z,73.56
2023-03-02T09:45:14.080Z,73.59
2023-03-02T09:48:03.820Z,72.51
2023-03-02T09:50:39.520Z,73.39
2023-03-02T09:53:32.303Z,73.93
2023-03-02T09:56:00.437Z,73.14
2023-03-02T09:58:37.900Z,71.07
2023-03-02T10:01:16.127Z,71.12
2023-03-02T10:04:01.537Z,71.29
2023-03-02T10:06:30.114Z,70.29
2023-03-02T10:08:58.615Z,70.71
2023-03-02T10:11:46.520Z,72.03
2023-03-02T10:14:46.991Z,72.05
2023-03-02T10:17:58.563Z,71.38
2023-03-02T10:20:36.917Z,71.35
2023-03-02T10:23:33.861Z,71.84
2023-03-02T10:26:08.188Z,71.14
2023-03-02T10:28:44.254Z,70.50
2023-03-02T10:31:31.135Z,71.30
2023-03-02T10:33:59.842Z,71.42
2023-03-02T10:36:30.521Z,70.80
2023-03-02T10:39:00.429Z,71.02
2023-03-02T10:41:36.521Z,71.11
2023-03-02T10:44:16.788Z,71.11
2023-03-02T10:46:46.368Z,71.32
2023-03-02T10:49:30.581Z,71.40
2023-03-02T10:52:05.949Z,73.02
2023-03-02T10:54:36.881Z,73.14
2023-03-02T10:57:25.980Z,73.79
2023-03-02T11:00:00.976Z,73.64
2023-03-02T11:02:37.697Z,73.97
2023-03-02T11:05:26.550Z,72.98
2023-03-02T11:07:58.242Z,73.52
2023-03-02T11:10:56.905Z,74.16
2023-03-02T11:13:33.934Z,74.08
2023-03-02T11:16:04.115Z,74.09
2023-03-02T11:18:45.377Z,74.68
2023-03-02T11:21:15.786Z,73.48
2023-03-02T11:23:49.544Z,74.48
2023-03-02T11:26:28.846Z,74.58
2023-03-02T11:29:09.075Z,73.32
2023-03-02T11:31:48.906Z,72.81
2023-03-02T11:34:43.359Z,72.16
2023-03-02T11:37:24.351Z,72.34
2023-03-02T11:40:05.345Z,75.78
2023-03-02T11:42:39.770Z,73.72
2023-03-02T11:45:13.718Z,83.79
2023-03-02T11:47:54.193Z,72.91
2023-03-02T11:50:27.024Z,72.74
2023-03-02T11:53:00.182Z,71.41
2023-03-02T11:55:31.716Z,72.15
2023-03-02T12:00:34.504Z,72.13
2023-03-02T12:03:31.494Z,75.12
2023-03-02T12:06:28.110Z,72.51
2023-03-02T12:09:09.109Z,79.40
2023-03-02T12:11:40.853Z,70.26
2023-03-02T12:14:29.649Z,78.79
2023-03-02T12:17:26.620Z,74.92
2023-03-02T12:20:08.346Z,70.89
2023-03-02T12:22:37.595Z,72.28
2023-03-02T12:25:26.387Z,68.88
2023-03-02T12:27:54.793Z,72.02
2023-03-02T12:30:26.913Z,72.06
2023-03-02T12:33:12.653Z,77.12
2023-03-02T12:35:40.854Z,68.13
2023-03-02T12:38:27.264Z,68.58
2023-03-02T12:41:17.488Z,66.83
2023-03-02T12:44:04.803Z,66.33
2023-03-02T12:46:35.122Z,66.01
2023-03-02T12:49:33.477Z,65.65
2023-03-02T12:52:04.494Z,66.86
2023-03-02T12:54:34.362Z,66.83
2023-03-02T12:57:14.199Z,67.46
2023-03-02T12:59:42.824Z,67.86
2023-03-02T13:02:20.811Z,68.23
2023-03-02T13:05:01.939Z,66.43
2023-03-02T13:07:47.046Z,67.38
2023-03-02T13:10:25.221Z,65.03
2023-03-02T13:12:53.328Z,65.57
2023-03-02T13:15:21.083Z,66.09
2023-03-02T13:17:57.908Z,65.71
2023-03-02T13:20:29.939Z,65.60
2023-03-02T13:22:57.651Z,65.38
2023-03-02T13:25:28.552Z,64.71
2023-03-02T13:28:01.531Z,66.00
2023-03-02T13:30:32.646Z,66.16
2023-03-02T13:33:04.204Z,65.78
2023-03-02T13:35:33.577Z,65.56
2023-03-02T13:38:06.167Z,66.16
2023-03-02T13:40:40.015Z,66.19
2023-03-02T13:43:23.052Z,65.84
2023-03-02T13:45:55.811Z,65.96
2023-03-02T13:48:24.305Z,66.51
2023-03-02T13:50:58.756Z,66.65
2023-03-02T13:53:30.112Z,66.53
2023-03-02T13:56:00.338Z,66.29
2023-03-02T13:58:29.811Z,67.00
2023-03-02T14:00:57.534Z,67.88
2023-03-02T14:03:31.135Z,66.97
2023-03-02T14:06:01.283Z,67.00
2023-03-02T14:08:29.349Z,67.75
2023-03-02T14:11:00.733Z,67.97
2023-03-02T14:13:43.893Z,69.20
2023-03-02T14:16:16.635Z,69.41
2023-03-02T14:18:49.584Z,68.20
2023-03-02T14:21:19.841Z,68.28
2023-03-02T14:23:48.807Z,68.82
2023-03-02T14:26:32.088Z,69.28
2023-03-02T14:29:06.062Z,69.26
2023-03-02T14:31:34.555Z,69.86
2023-03-02T14:34:02.484Z,70.17
2023-03-02T14:36:34.960Z,70.86
2023-03-02T14:39:05.588Z,70.21
2023-03-02T14:41:51.210Z,70.12
2023-03-02T14:44:21.624Z,69.55
2023-03-02T14:46:49.572Z,70.62
2023-03-02T14:49:17.196Z,70.57
2023-03-02T14:51:59.231Z,70.43
2023-03-02T14:54:27.639Z,71.00
2023-03-02T14:56:55.485Z,70.22
2023-03-02T14:59:22.897Z,70.88
2023-03-02T15:01:50.400Z,71.51
2023-03-02T15:04:18.345Z,71.71
2023-03-02T15:06:46.098Z,71.47
2023-03-02T15:09:13.884Z,71.48
2023-03-02T15:11:42.064Z,71.69
2023-03-02T15:14:09.688Z,71.80
2023-03-02T15:16:37.179Z,72.39
2023-03-02T15:19:05.123Z,72.12
2023-03-02T15:21:32.939Z,71.89
2023-03-02T15:24:00.802Z,73.28
2023-03-02T15:26:28.695Z,73.53
2023-03-02T15:28:56.246Z,73.60
2023-03-02T15:31:23.692Z,73.78
2023-03-02T15:33:52.136Z,74.27
2023-03-02T15:36:20.817Z,74.63
2023-03-02T15:38:50.883Z,74.66
2023-03-02T15:41:19.463Z,74.42
2023-03-02T15:43:54.233Z,75.15
2023-03-02T15:46:23.381Z,75.30
2023-03-02T15:48:52.904Z,75.94
2023-03-02T15:51:21.040Z,76.51
2023-03-02T15:53:48.964Z,79.88
2023-03-02T15:56:17.085Z,80.71
2023-03-02T15:58:48.991Z,82.04
2023-03-02T16:01:17.193Z,82.44
2023-03-02T16:03:45.622Z,83.19
2023-03-02T16:06:14.110Z,83.33
2023-03-02T16:08:41.611Z,83.92
2023-03-02T16:11:10.303Z,84.08
2023-03-02T16:13:37.914Z,84.35
2023-03-02T16:16:06.267Z,85.33
2023-03-02T16:18:34.281Z,85.37
2023-03-02T16:21:03.539Z,86.02
2023-03-02T16:23:31.340Z,86.08
2023-03-02T16:26:10.739Z,85.74
2023-03-02T16:28:38.552Z,86.12
2023-03-02T16:31:15.315Z,85.68
2023-03-02T16:33:43.502Z,85.69
2023-03-02T16:36:12.568Z,84.88
2023-03-02T16:38:40.751Z,85.46
2023-03-02T16:41:20.672Z,85.39
2023-03-02T16:43:51.697Z,85.73
2023-03-02T16:46:20.055Z,86.19
2023-03-02T16:48:48.779Z,86.36
2023-03-02T16:51:18.562Z,86.64
2023-03-02T16:53:46.944Z,87.14
2023-03-02T16:56:15.387Z,87.35
2023-03-02T16:58:43.185Z,87.52
2023-03-02T17:01:14.994Z,87.47
2023-03-02T17:03:44.116Z,88.18
2023-03-02T17:06:14.470Z,88.69
2023-03-02T17:08:42.064Z,88.54
2023-03-02T17:11:10.718Z,88.92
2023-03-02T17:13:38.268Z,88.74
2023-03-02T17:16:05.973Z,88.66
2023-03-02T17:18:34.404Z,88.95
2023-03-02T17:21:01.940Z,89.25
2023-03-02T17:23:31.283Z,89.62
2023-03-02T17:25:59.196Z,89.39
2023-03-02T17:28:26.938Z,89.25
2023-03-02T17:30:54.646Z,89.11
2023-03-02T17:33:22.756Z,88.49
2023-03-02T17:35:50.601Z,88.95
2023-03-02T17:38:18.340Z,88.54
2023-03-02T17:40:46.505Z,88.99
2023-03-02T17:43:14.081Z,88.76
2023-03-02T17:45:41.553Z,88.64
2023-03-02T17:48:09.354Z,88.85
2023-03-02T17:50:37.520Z,88.79
2023-03-02T17:53:05.311Z,89.07
2023-03-02T17:55:33.151Z,89.87
2023-03-02T17:58:00.754Z,89.92
2023-03-02T18:00:30.603Z,89.83
2023-03-02T18:02:58.871Z,90.35
2023-03-02T18:05:27.109Z,90.47
2023-03-02T18:07:54.851Z,90.44
2023-03-02T18:10:24.232Z,90.91
2023-03-02T18:12:54.327Z,91.71
2023-03-02T18:15:23.087Z,92.34
2023-03-02T18:17:50.812Z,91.94
2023-03-02T18:20:18.991Z,91.39
2023-03-02T18:22:47.068Z,91.64
2023-03-02T18:25:15.723Z,91.47
2023-03-02T18:27:43.613Z,91.63
2023-03-02T18:30:16.878Z,91.43
2023-03-02T18:32:46.238Z,91.38
2023-03-02T18:35:14.502Z,91.67
2023-03-02T18:37:42.599Z,92.00
2023-03-02T18:40:11.561Z,92.43
2023-03-02T18:42:41.457Z,92.35
2023-03-02T18:45:09.882Z,92.19
2023-03-02T18:47:37.513Z,92.94
2023-03-02T18:50:07.441Z,93.64
2023-03-02T18:52:36.269Z,94.00
2023-03-02T18:55:04.573Z,94.40
2023-03-02T18:57:33.941Z,94.29
2023-03-02T19:00:09.697Z,94.70
2023-03-02T19:02:40.717Z,94.80
2023-03-02T19:05:09.369Z,95.02
2023-03-02T19:07:37.552Z,95.21
2023-03-02T19:10:06.285Z,95.62
2023-03-02T19:12:35.486Z,95.76
2023-03-02T19:15:05.067Z,96.11
2023-03-02T19:17:32.592Z,96.31
2023-03-02T19:20:00.608Z,96.94
2023-03-02T19:22:28.703Z,96.91
2023-03-02T19:24:56.647Z,97.20
2023-03-02T19:27:24.464Z,97.58
2023-03-02T19:29:53.935Z,97.75
2023-03-02T19:32:21.953Z,97.98
2023-03-02T19:34:49.962Z,98.27
2023-03-02T19:37:17.779Z,98.60
2023-03-02T19:39:45.416Z,98.91
2023-03-02T19:42:12.937Z,99.44
2023-03-02T19:44:41.022Z,99.55
2023-03-02T19:47:08.670Z,99.64
2023-03-02T19:49:37.751Z,99.73
2023-03-02T19:52:05.838Z,99.80
2023-03-02T19:54:33.630Z,99.87
2023-03-02T19:57:03.556Z,99.89
2023-03-02T19:59:32.537Z,100.00
2023-03-02T20:02:00.224Z,100.00
2023-03-02T20:04:28.437Z,100.00
2023-03-02T20:06:56.311Z,100.00
2023-03-02T20:09:24.304Z,100.00
2023-03-02T20:11:52.152Z,100.00
2023-03-02T20:14:33.436Z,100.00
2023-03-02T20:17:03.386Z,100.00
2023-03-02T20:19:31.396Z,100.00
2023-03-02T20:21:59.255Z,100.00
2023-03-02T20:24:27.445Z,100.00
2023-03-02T20:26:54.920Z,100.00
2023-03-02T20:29:22.874Z,100.00
2023-03-02T20:31:51.137Z,100.00
2023-03-02T20:34:19.093Z,100.00
2023-03-02T20:36:47.362Z,100.00
2023-03-02T20:39:18.129Z,100.00
2023-03-02T20:41:46.048Z,100.00
2023-03-02T20:44:14.926Z,100.00
2023-03-02T20:46:47.312Z,100.00
2023-03-02T20:49:16.147Z,100.00
2023-03-02T20:51:52.682Z,100.00
2023-03-02T20:54:22.902Z,100.00
2023-03-02T20:56:51.975Z,100.00
2023-03-02T20:59:21.120Z,100.00
2023-03-02T21:01:49.246Z,100.00
2023-03-02T21:04:17.428Z,100.00
2023-03-02T21:06:46.233Z,100.00
2023-03-02T21:09:14.836Z,100.00
2023-03-02T21:11:42.858Z,100.00
2023-03-02T21:14:14.168Z,100.00
2023-03-02T21:16:44.109Z,100.00
2023-03-02T21:19:17.488Z,100.00
2023-03-02T21:21:46.218Z,100.00
2023-03-02T21:24:19.102Z,100.00
2023-03-02T21:26:49.847Z,100.00
2023-03-02T21:29:21.522Z,100.00
2023-03-02T21:31:50.075Z,100.00
2023-03-02T21:34:19.009Z,100.00
2023-03-02T21:36:46.935Z,100.00
2023-03-02T21:39:14.940Z,100.00
2023-03-02T21:41:42.472Z,100.00
2023-03-02T21:44:12.475Z,100.00
2023-03-02T21:46:40.544Z,100.00
2023-03-02T21:49:08.474Z,100.00
2023-03-02T21:51:36.142Z,100.00
2023-03-02T21:54:04.280Z,100.00
2023-03-02T21:56:31.798Z,100.00
2023-03-02T21:58:59.699Z,100.00
2023-03-02T22:01:27.606Z,100.00
2023-03-02T22:03:56.121Z,100.00
2023-03-02T22:06:27.274Z,100.00
2023-03-02T22:08:56.945Z,100.00
2023-03-02T22:11:27.007Z,100.00
2023-03-02T22:13:58.464Z,100.00
2023-03-02T22:16:33.119Z,100.00
2023-03-02T22:19:01.918Z,100.00
2023-03-02T22:21:35.819Z,100.00
2023-03-02T22:24:09.656Z,100.00
2023-03-02T22:26:50.348Z,100.00
2023-03-02T22:29:25.476Z,100.00
2023-03-02T22:31:55.290Z,100.00
2023-03-02T22:34:29.819Z,99.58
2023-03-02T22:37:09.694Z,98.21
2023-03-02T22:39:42.025Z,96.87
2023-03-02T22:42:14.780Z,95.51
2023-03-02T22:44:44.467Z,93.71
2023-03-02T22:47:19.307Z,93.07
2023-03-02T22:49:58.901Z,92.46
2023-03-02T22:52:36.834Z,91.90
2023-03-02T22:55:31.084Z,91.71
2023-03-02T22:57:58.518Z,90.92
2023-03-02T23:00:37.968Z,91.14
2023-03-02T23:03:17.630Z,90.09
2023-03-02T23:05:49.093Z,90.53
2023-03-02T23:08:20.748Z,90.81
2023-03-02T23:10:52.562Z,90.96
2023-03-02T23:13:22.642Z,90.88
2023-03-02T23:15:51.648Z,91.06
2023-03-02T23:18:28.749Z,90.76
2023-03-02T23:20:56.599Z,90.73
2023-03-02T23:23:26.883Z,91.16
2023-03-02T23:25:54.391Z,91.22
2023-03-02T23:28:22.133Z,91.40
2023-03-02T23:30:49.993Z,91.53
2023-03-02T23:33:17.636Z,91.88
2023-03-02T23:35:45.409Z,92.23
2023-03-02T23:38:12.936Z,93.03
2023-03-02T23:40:41.636Z,93.31
2023-03-02T23:43:09.377Z,93.84
2023-03-02T23:45:36.802Z,94.53
2023-03-02T23:48:04.906Z,94.11
2023-03-02T23:50:32.759Z,93.90
2023-03-02T23:53:00.425Z,94.32
2023-03-02T23:55:27.948Z,94.87
2023-03-02T23:57:55.724Z,94.95
